createdAt,value
2022-08-12T00:05:34.949Z,1.90
2022-08-12T00:15:34.910Z,1.90
2022-08-12T00:26:19.020Z,1.90
2022-08-12T00:35:36.876Z,2.10
2022-08-12T00:45:34.923Z,1.80
2022-08-12T00:55:35.118Z,2.00
2022-08-12T01:05:35.035Z,2.00
2022-08-12T01:15:34.945Z,2.10
2022-08-12T01:25:37.393Z,2.20
2022-08-12T01:35:34.958Z,2.20
2022-08-12T01:45:40.574Z,2.00
2022-08-12T02:05:39.789Z,2.10
2022-08-12T02:25:35.004Z,2.20
2022-08-12T02:35:34.996Z,2.40
2022-08-12T02:45:34.984Z,2.20
2022-08-12T02:55:35.318Z,2.20
2022-08-12T03:05:38.491Z,2.20
2022-08-12T03:15:34.987Z,2.40
2022-08-12T03:25:34.989Z,2.00
2022-08-12T03:35:40.085Z,2.50
2022-08-12T03:45:34.999Z,2.10
2022-08-12T03:55:35.014Z,2.20
2022-08-12T04:05:55.164Z,2.60
2022-08-12T04:15:35.032Z,3.40
2022-08-12T04:25:35.024Z,3.50
2022-08-12T04:35:35.021Z,4.40
2022-08-12T04:45:35.023Z,3.90
2022-08-12T04:55:35.026Z,3.60
2022-08-12T05:05:36.253Z,3.70
2022-08-12T05:15:36.051Z,3.70
2022-08-12T05:25:35.043Z,3.10
2022-08-12T05:35:35.040Z,3.00
2022-08-12T05:45:35.060Z,3.20
2022-08-12T05:55:35.046Z,4.00
2022-08-12T06:05:53.244Z,4.00
2022-08-12T06:15:35.086Z,2.90
2022-08-12T06:25:35.064Z,3.00
2022-08-12T06:35:48.819Z,2.80
2022-08-12T06:45:46.185Z,2.90
2022-08-12T06:55:35.077Z,2.60
2022-08-12T07:05:35.082Z,2.70
2022-08-12T07:15:35.108Z,2.40
2022-08-12T07:25:37.677Z,2.30
2022-08-12T07:35:35.089Z,2.20
2022-08-12T07:45:35.106Z,1.80
2022-08-12T07:55:35.112Z,2.00
2022-08-12T08:05:35.116Z,3.00
2022-08-12T08:16:01.229Z,1.90
2022-08-12T08:25:37.492Z,1.50
2022-08-12T08:35:46.151Z,1.60
2022-08-12T08:45:35.126Z,1.60
2022-08-12T08:56:03.180Z,1.70
2022-08-12T09:06:01.828Z,1.60
2022-08-12T09:15:36.203Z,1.90
2022-08-12T09:25:35.177Z,7.40
2022-08-12T09:35:42.904Z,4.50
2022-08-12T09:46:11.011Z,2.80
2022-08-12T09:56:07.122Z,2.80
2022-08-12T10:06:19.211Z,2.50
2022-08-12T10:16:00.741Z,2.20
2022-08-12T10:26:18.166Z,2.20
2022-08-12T10:35:37.715Z,2.30
2022-08-12T10:45:38.037Z,2.60
2022-08-12T10:55:35.496Z,2.70
2022-08-12T11:07:03.197Z,2.90
2022-08-12T11:16:19.102Z,3.00
2022-08-12T11:25:55.992Z,2.70
2022-08-12T11:35:35.238Z,3.10
2022-08-12T11:45:39.009Z,2.90
2022-08-12T11:55:35.203Z,2.70
2022-08-12T12:15:40.757Z,3.30
2022-08-12T12:25:59.458Z,3.30
2022-08-12T12:36:19.770Z,3.20
2022-08-12T12:45:35.554Z,3.10
2022-08-12T12:55:35.725Z,3.30
2022-08-12T13:05:42.580Z,2.90
2022-08-12T13:15:43.416Z,2.60
2022-08-12T13:25:35.259Z,3.20
2022-08-12T13:36:05.719Z,3.10
2022-08-12T13:45:35.280Z,2.80
2022-08-12T13:55:35.285Z,3.60
2022-08-12T14:05:39.038Z,3.10
2022-08-12T14:15:37.195Z,2.90
2022-08-12T14:25:35.707Z,3.00
2022-08-12T14:35:44.754Z,3.40
2022-08-12T14:45:44.448Z,3.20
2022-08-12T15:06:05.005Z,3.50
2022-08-12T15:15:35.551Z,3.20
2022-08-12T15:25:40.054Z,3.20
2022-08-12T15:35:49.952Z,2.90
2022-08-12T15:45:35.330Z,3.20
2022-08-12T15:55:35.361Z,3.30
2022-08-12T16:06:11.777Z,3.40
2022-08-12T16:15:35.703Z,3.60
2022-08-12T16:26:02.931Z,3.70
2022-08-12T16:35:35.377Z,3.40
2022-08-12T16:46:23.552Z,6.20
2022-08-12T16:55:41.822Z,4.20
2022-08-12T17:05:35.364Z,3.20
2022-08-12T17:15:56.769Z,2.90
2022-08-12T17:25:35.380Z,3.10
2022-08-12T17:35:36.678Z,3.80
2022-08-12T17:45:35.382Z,3.50
2022-08-12T17:55:40.140Z,3.40
2022-08-12T18:16:05.784Z,4.00
2022-08-12T18:45:46.870Z,4.70
2022-08-12T18:55:37.756Z,4.70
2022-08-12T19:05:53.367Z,5.10
2022-08-12T19:55:38.943Z,6.50
2022-08-12T20:06:08.523Z,6.10
2022-08-12T20:25:53.033Z,7.00
2022-08-12T20:35:38.917Z,7.00
2022-08-12T20:45:44.758Z,6.90
2022-08-12T20:55:42.123Z,7.00
2022-08-12T21:06:11.859Z,7.00
2022-08-12T21:15:54.566Z,6.90
2022-08-12T21:25:36.002Z,7.30
2022-08-12T21:35:35.811Z,7.40
2022-08-12T21:45:46.607Z,7.40
2022-08-12T21:55:35.589Z,7.60
2022-08-12T22:05:35.507Z,7.10
2022-08-12T22:15:35.498Z,7.80
2022-08-12T22:25:35.508Z,8.30
2022-08-12T22:35:55.698Z,8.80
2022-08-12T22:45:35.507Z,8.50
2022-08-12T22:55:59.020Z,8.70
2022-08-12T23:05:56.685Z,9.30
2022-08-12T23:15:35.514Z,11.30
2022-08-12T23:25:55.393Z,8.70
2022-08-12T23:35:53.953Z,12.20
2022-08-12T23:45:35.522Z,10.20
2022-08-12T23:55:35.564Z,9.80
